sensor_id;sensor_type;location;lat;lon;timestamp;temperature;humidity
13589;DHT22;6865;52.552;13.434;2023-01-15T00:01:01;8.60;99.90
13589;DHT22;6865;52.552;13.434;2023-01-15T00:03:28;8.70;99.90
13589;DHT22;6865;52.552;13.434;2023-01-15T00:05:55;8.70;99.90
13589;DHT22;6865;52.552;13.434;2023-01-15T00:08:22;8.70;99.90
13589;DHT22;6865;52.552;13.434;2023-01-15T00:10:49;8.80;99.90
13589;DHT22;6865;52.552;13.434;2023-01-15T00:13:15;8.80;99.90
13589;DHT22;6865;52.552;13.434;2023-01-15T00:15:42;8.80;99.90
13589;DHT22;6865;52.552;13.434;2023-01-15T00:18:09;8.90;99.90
13589;DHT22;6865;52.552;13.434;2023-01-15T00:20:36;8.80;99.90
13589;DHT22;6865;52.552;13.434;2023-01-15T00:23:02;8.90;99.90
13589;DHT22;6865;52.552;13.434;2023-01-15T00:25:29;9.00;99.90
13589;DHT22;6865;52.552;13.434;2023-01-15T00:28:14;8.90;99.90
13589;DHT22;6865;52.552;13.434;2023-01-15T00:30:41;8.90;99.90
13589;DHT22;6865;52.552;13.434;2023-01-15T00:33:08;8.90;99.90
13589;DHT22;6865;52.552;13.434;2023-01-15T00:35:35;8.80;99.90
13589;DHT22;6865;52.552;13.434;2023-01-15T00:38:01;8.80;99.90
13589;DHT22;6865;52.552;13.434;2023-01-15T00:40:28;9.00;99.90
13589;DHT22;6865;52.552;13.434;2023-01-15T00:42:55;8.90;99.90
13589;DHT22;6865;52.552;13.434;2023-01-15T00:45:21;8.90;99.90
13589;DHT22;6865;52.552;13.434;2023-01-15T00:47:49;8.90;99.90
13589;DHT22;6865;52.552;13.434;2023-01-15T00:50:16;8.90;99.90
13589;DHT22;6865;52.552;13.434;2023-01-15T00:52:42;9.00;99.90
13589;DHT22;6865;52.552;13.434;2023-01-15T00:55:09;9.00;99.90
13589;DHT22;6865;52.552;13.434;2023-01-15T00:57:36;9.00;99.90
13589;DHT22;6865;52.552;13.434;2023-01-15T01:00:03;9.00;99.90
13589;DHT22;6865;52.552;13.434;2023-01-15T01:02:30;9.00;99.90
13589;DHT22;6865;52.552;13.434;2023-01-15T01:04:56;8.90;99.90
13589;DHT22;6865;52.552;13.434;2023-01-15T01:07:23;8.90;99.90
13589;DHT22;6865;52.552;13.434;2023-01-15T01:09:50;8.90;99.90
13589;DHT22;6865;52.552;13.434;2023-01-15T01:12:16;8.90;99.90
13589;DHT22;6865;52.552;13.434;2023-01-15T01:14:43;8.90;99.90
13589;DHT22;6865;52.552;13.434;2023-01-15T01:17:10;8.90;99.90
13589;DHT22;6865;52.552;13.434;2023-01-15T01:19:37;9.00;99.90
13589;DHT22;6865;52.552;13.434;2023-01-15T01:22:04;9.00;99.90
13589;DHT22;6865;52.552;13.434;2023-01-15T01:24:31;8.90;99.90
13589;DHT22;6865;52.552;13.434;2023-01-15T01:26:57;9.00;99.90
13589;DHT22;6865;52.552;13.434;2023-01-15T01:29:24;9.00;99.90
13589;DHT22;6865;52.552;13.434;2023-01-15T01:31:51;9.00;99.90
13589;DHT22;6865;52.552;13.434;2023-01-15T01:34:17;9.10;99.90
13589;DHT22;6865;52.552;13.434;2023-01-15T01:36:44;9.20;99.90
13589;DHT22;6865;52.552;13.434;2023-01-15T01:39:13;9.20;99.90
13589;DHT22;6865;52.552;13.434;2023-01-15T01:41:40;9.20;99.90
13589;DHT22;6865;52.552;13.434;2023-01-15T01:47:02;9.20;99.90
13589;DHT22;6865;52.552;13.434;2023-01-15T01:49:30;9.20;99.90
13589;DHT22;6865;52.552;13.434;2023-01-15T01:52:03;9.20;99.90
13589;DHT22;6865;52.552;13.434;2023-01-15T01:54:33;9.20;99.90
13589;DHT22;6865;52.552;13.434;2023-01-15T01:57:02;9.20;99.90
13589;DHT22;6865;52.552;13.434;2023-01-15T01:59:29;9.20;99.90
13589;DHT22;6865;52.552;13.434;2023-01-15T02:01:56;8.90;99.90
13589;DHT22;6865;52.552;13.434;2023-01-15T02:04:24;9.00;99.90
13589;DHT22;6865;52.552;13.434;2023-01-15T02:06:52;9.10;99.90
13589;DHT22;6865;52.552;13.434;2023-01-15T02:09:19;9.10;99.90
13589;DHT22;6865;52.552;13.434;2023-01-15T02:11:46;9.10;99.90
13589;DHT22;6865;52.552;13.434;2023-01-15T02:14:20;9.20;99.90
13589;DHT22;6865;52.552;13.434;2023-01-15T02:20:05;9.10;99.90
13589;DHT22;6865;52.552;13.434;2023-01-15T02:22:49;9.00;99.90
13589;DHT22;6865;52.552;13.434;2023-01-15T02:28:22;9.10;99.90
13589;DHT22;6865;52.552;13.434;2023-01-15T02:30:56;9.10;99.90
13589;DHT22;6865;52.552;13.434;2023-01-15T02:33:35;9.00;99.90
13589;DHT22;6865;52.552;13.434;2023-01-15T02:36:07;9.00;99.90
13589;DHT22;6865;52.552;13.434;2023-01-15T02:38:39;9.00;99.90
13589;DHT22;6865;52.552;13.434;2023-01-15T02:41:08;9.00;99.90
13589;DHT22;6865;52.552;13.434;2023-01-15T02:43:45;9.00;99.90
13589;DHT22;6865;52.552;13.434;2023-01-15T02:46:13;8.90;99.90
13589;DHT22;6865;52.552;13.434;2023-01-15T02:48:40;9.00;99.90
13589;DHT22;6865;52.552;13.434;2023-01-15T02:51:11;8.90;99.90
13589;DHT22;6865;52.552;13.434;2023-01-15T02:53:42;8.80;99.90
13589;DHT22;6865;52.552;13.434;2023-01-15T02:56:13;8.90;99.90
13589;DHT22;6865;52.552;13.434;2023-01-15T02:58:42;8.90;99.90
13589;DHT22;6865;52.552;13.434;2023-01-15T03:01:19;8.90;99.90
13589;DHT22;6865;52.552;13.434;2023-01-15T03:04:09;8.90;99.90
13589;DHT22;6865;52.552;13.434;2023-01-15T03:06:43;8.90;99.90
13589;DHT22;6865;52.552;13.434;2023-01-15T03:09:12;8.90;99.90
13589;DHT22;6865;52.552;13.434;2023-01-15T03:11:46;8.90;99.90
13589;DHT22;6865;52.552;13.434;2023-01-15T03:14:19;8.90;99.90
13589;DHT22;6865;52.552;13.434;2023-01-15T03:16:53;8.90;99.90
13589;DHT22;6865;52.552;13.434;2023-01-15T03:21:58;8.90;99.90
13589;DHT22;6865;52.552;13.434;2023-01-15T03:24:54;8.90;99.90
13589;DHT22;6865;52.552;13.434;2023-01-15T03:27:23;8.90;99.90
13589;DHT22;6865;52.552;13.434;2023-01-15T03:29:57;8.90;99.90
13589;DHT22;6865;52.552;13.434;2023-01-15T03:32:24;8.90;99.90
13589;DHT22;6865;52.552;13.434;2023-01-15T03:34:53;8.80;99.90
13589;DHT22;6865;52.552;13.434;2023-01-15T03:37:22;8.80;99.90
13589;DHT22;6865;52.552;13.434;2023-01-15T03:39:50;8.60;99.90
13589;DHT22;6865;52.552;13.434;2023-01-15T03:42:37;8.80;99.90
13589;DHT22;6865;52.552;13.434;2023-01-15T03:45:18;8.80;99.90
13589;DHT22;6865;52.552;13.434;2023-01-15T03:48:00;8.80;99.90
13589;DHT22;6865;52.552;13.434;2023-01-15T03:50:49;8.90;99.90
13589;DHT22;6865;52.552;13.434;2023-01-15T03:53:40;8.90;99.90
13589;DHT22;6865;52.552;13.434;2023-01-15T03:56:23;8.90;99.90
13589;DHT22;6865;52.552;13.434;2023-01-15T03:59:10;8.90;99.90
13589;DHT22;6865;52.552;13.434;2023-01-15T04:01:40;8.90;99.90
13589;DHT22;6865;52.552;13.434;2023-01-15T04:04:08;8.90;99.90
13589;DHT22;6865;52.552;13.434;2023-01-15T04:06:37;8.90;99.90
13589;DHT22;6865;52.552;13.434;2023-01-15T04:09:07;8.90;99.90
13589;DHT22;6865;52.552;13.434;2023-01-15T04:11:34;8.70;99.90
13589;DHT22;6865;52.552;13.434;2023-01-15T04:14:01;8.50;99.90
13589;DHT22;6865;52.552;13.434;2023-01-15T04:16:30;8.20;99.90
13589;DHT22;6865;52.552;13.434;2023-01-15T04:18:58;8.10;99.90
13589;DHT22;6865;52.552;13.434;2023-01-15T04:21:25;7.90;99.90
13589;DHT22;6865;52.552;13.434;2023-01-15T04:23:52;7.90;99.90
13589;DHT22;6865;52.552;13.434;2023-01-15T04:26:18;7.90;99.90
13589;DHT22;6865;52.552;13.434;2023-01-15T04:28:45;7.90;99.90
13589;DHT22;6865;52.552;13.434;2023-01-15T04:31:12;7.80;99.90
13589;DHT22;6865;52.552;13.434;2023-01-15T04:33:38;7.60;99.90
13589;DHT22;6865;52.552;13.434;2023-01-15T04:36:06;7.30;99.90
13589;DHT22;6865;52.552;13.434;2023-01-15T04:38:32;7.20;99.90
13589;DHT22;6865;52.552;13.434;2023-01-15T04:41:03;6.90;99.90
13589;DHT22;6865;52.552;13.434;2023-01-15T04:43:48;6.80;99.90
13589;DHT22;6865;52.552;13.434;2023-01-15T04:46:34;6.60;99.90
13589;DHT22;6865;52.552;13.434;2023-01-15T04:49:03;6.50;99.90
13589;DHT22;6865;52.552;13.434;2023-01-15T04:51:29;6.40;99.90
13589;DHT22;6865;52.552;13.434;2023-01-15T04:53:56;6.30;99.90
13589;DHT22;6865;52.552;13.434;2023-01-15T04:56:23;6.20;99.90
13589;DHT22;6865;52.552;13.434;2023-01-15T04:58:50;6.10;99.90
13589;DHT22;6865;52.552;13.434;2023-01-15T05:01:17;6.10;99.90
13589;DHT22;6865;52.552;13.434;2023-01-15T05:03:44;6.10;99.90
13589;DHT22;6865;52.552;13.434;2023-01-15T05:06:11;6.20;99.90
13589;DHT22;6865;52.552;13.434;2023-01-15T05:08:39;6.00;99.90
13589;DHT22;6865;52.552;13.434;2023-01-15T05:11:06;5.60;99.90
13589;DHT22;6865;52.552;13.434;2023-01-15T05:13:33;6.00;99.90
13589;DHT22;6865;52.552;13.434;2023-01-15T05:16:11;6.00;99.90
13589;DHT22;6865;52.552;13.434;2023-01-15T05:18:38;5.90;99.90
13589;DHT22;6865;52.552;13.434;2023-01-15T05:21:05;5.90;99.90
13589;DHT22;6865;52.552;13.434;2023-01-15T05:23:32;5.70;99.90
13589;DHT22;6865;52.552;13.434;2023-01-15T05:26:02;5.90;99.90
13589;DHT22;6865;52.552;13.434;2023-01-15T05:28:28;5.90;99.90
13589;DHT22;6865;52.552;13.434;2023-01-15T05:30:55;5.90;99.90
13589;DHT22;6865;52.552;13.434;2023-01-15T05:33:21;5.90;99.90
13589;DHT22;6865;52.552;13.434;2023-01-15T05:35:48;5.90;99.90
13589;DHT22;6865;52.552;13.434;2023-01-15T05:38:14;6.00;99.90
13589;DHT22;6865;52.552;13.434;2023-01-15T05:40:41;5.90;99.90
13589;DHT22;6865;52.552;13.434;2023-01-15T05:43:08;5.90;99.90
13589;DHT22;6865;52.552;13.434;2023-01-15T05:45:34;5.90;99.90
13589;DHT22;6865;52.552;13.434;2023-01-15T05:48:01;5.80;99.90
13589;DHT22;6865;52.552;13.434;2023-01-15T05:50:28;5.90;99.90
13589;DHT22;6865;52.552;13.434;2023-01-15T05:52:55;5.90;99.90
13589;DHT22;6865;52.552;13.434;2023-01-15T05:55:21;5.90;99.90
13589;DHT22;6865;52.552;13.434;2023-01-15T05:57:48;5.80;99.90
13589;DHT22;6865;52.552;13.434;2023-01-15T06:00:15;5.90;99.90
13589;DHT22;6865;52.552;13.434;2023-01-15T06:02:41;5.90;99.90
13589;DHT22;6865;52.552;13.434;2023-01-15T06:05:08;5.90;99.90
13589;DHT22;6865;52.552;13.434;2023-01-15T06:07:35;5.90;99.90
13589;DHT22;6865;52.552;13.434;2023-01-15T06:10:01;5.90;99.90
13589;DHT22;6865;52.552;13.434;2023-01-15T06:12:28;5.80;99.90
13589;DHT22;6865;52.552;13.434;2023-01-15T06:14:55;6.10;99.90
13589;DHT22;6865;52.552;13.434;2023-01-15T06:17:21;5.80;99.90
13589;DHT22;6865;52.552;13.434;2023-01-15T06:19:48;5.80;99.90
13589;DHT22;6865;52.552;13.434;2023-01-15T06:22:14;5.90;99.90
13589;DHT22;6865;52.552;13.434;2023-01-15T06:24:41;5.90;99.90
13589;DHT22;6865;52.552;13.434;2023-01-15T06:27:08;5.80;99.90
13589;DHT22;6865;52.552;13.434;2023-01-15T06:29:34;5.80;99.90
13589;DHT22;6865;52.552;13.434;2023-01-15T06:32:01;5.90;99.90
13589;DHT22;6865;52.552;13.434;2023-01-15T06:34:27;5.90;99.90
13589;DHT22;6865;52.552;13.434;2023-01-15T06:36:54;5.80;99.90
13589;DHT22;6865;52.552;13.434;2023-01-15T06:39:20;5.90;99.90
13589;DHT22;6865;52.552;13.434;2023-01-15T06:41:47;5.90;99.90
13589;DHT22;6865;52.552;13.434;2023-01-15T06:44:32;5.90;99.90
13589;DHT22;6865;52.552;13.434;2023-01-15T06:47:19;5.90;99.90
13589;DHT22;6865;52.552;13.434;2023-01-15T06:49:47;6.10;99.90
13589;DHT22;6865;52.552;13.434;2023-01-15T06:52:14;6.10;99.90
13589;DHT22;6865;52.552;13.434;2023-01-15T06:54:40;6.10;99.90
13589;DHT22;6865;52.552;13.434;2023-01-15T06:57:07;6.10;99.90
13589;DHT22;6865;52.552;13.434;2023-01-15T06:59:34;6.10;99.90
13589;DHT22;6865;52.552;13.434;2023-01-15T07:02:00;6.20;99.90
13589;DHT22;6865;52.552;13.434;2023-01-15T07:04:27;6.20;99.90
13589;DHT22;6865;52.552;13.434;2023-01-15T07:06:54;6.30;99.90
13589;DHT22;6865;52.552;13.434;2023-01-15T07:09:20;6.20;99.90
13589;DHT22;6865;52.552;13.434;2023-01-15T07:11:47;6.20;99.90
13589;DHT22;6865;52.552;13.434;2023-01-15T07:14:17;6.20;99.90
13589;DHT22;6865;52.552;13.434;2023-01-15T07:16:44;6.10;99.90
13589;DHT22;6865;52.552;13.434;2023-01-15T07:19:11;6.10;99.90
13589;DHT22;6865;52.552;13.434;2023-01-15T07:21:38;6.10;99.90
13589;DHT22;6865;52.552;13.434;2023-01-15T07:24:06;6.10;99.90
13589;DHT22;6865;52.552;13.434;2023-01-15T07:26:33;6.40;99.90
13589;DHT22;6865;52.552;13.434;2023-01-15T07:29:00;6.20;99.90
13589;DHT22;6865;52.552;13.434;2023-01-15T07:31:26;6.20;99.90
13589;DHT22;6865;52.552;13.434;2023-01-15T07:33:55;6.20;99.90
13589;DHT22;6865;52.552;13.434;2023-01-15T07:36:23;6.30;99.90
13589;DHT22;6865;52.552;13.434;2023-01-15T07:38:50;6.20;99.90
13589;DHT22;6865;52.552;13.434;2023-01-15T07:41:16;6.10;99.90
13589;DHT22;6865;52.552;13.434;2023-01-15T07:44:01;6.20;99.90
13589;DHT22;6865;52.552;13.434;2023-01-15T07:46:47;5.80;99.90
13589;DHT22;6865;52.552;13.434;2023-01-15T07:49:32;6.00;99.90
13589;DHT22;6865;52.552;13.434;2023-01-15T07:52:16;6.10;99.90
13589;DHT22;6865;52.552;13.434;2023-01-15T07:54:44;6.10;99.90
13589;DHT22;6865;52.552;13.434;2023-01-15T07:57:12;5.90;99.90
13589;DHT22;6865;52.552;13.434;2023-01-15T07:59:40;6.10;99.90
13589;DHT22;6865;52.552;13.434;2023-01-15T08:02:06;6.00;99.90
13589;DHT22;6865;52.552;13.434;2023-01-15T08:04:33;6.10;99.90
13589;DHT22;6865;52.552;13.434;2023-01-15T08:07:01;6.10;99.90
13589;DHT22;6865;52.552;13.434;2023-01-15T08:09:28;6.10;99.90
13589;DHT22;6865;52.552;13.434;2023-01-15T08:11:57;6.10;99.90
13589;DHT22;6865;52.552;13.434;2023-01-15T08:14:43;6.00;99.90
13589;DHT22;6865;52.552;13.434;2023-01-15T08:17:29;6.10;99.90
13589;DHT22;6865;52.552;13.434;2023-01-15T08:19:56;6.20;99.90
13589;DHT22;6865;52.552;13.434;2023-01-15T08:22:22;6.40;99.90
13589;DHT22;6865;52.552;13.434;2023-01-15T08:24:49;6.00;99.90
13589;DHT22;6865;52.552;13.434;2023-01-15T08:27:16;5.90;99.90
13589;DHT22;6865;52.552;13.434;2023-01-15T08:29:43;6.10;99.90
13589;DHT22;6865;52.552;13.434;2023-01-15T08:32:09;6.20;99.90
13589;DHT22;6865;52.552;13.434;2023-01-15T08:34:36;6.20;99.90
13589;DHT22;6865;52.552;13.434;2023-01-15T08:37:03;6.20;99.90
13589;DHT22;6865;52.552;13.434;2023-01-15T08:39:29;6.10;99.90
13589;DHT22;6865;52.552;13.434;2023-01-15T08:41:56;6.20;99.90
13589;DHT22;6865;52.552;13.434;2023-01-15T08:44:23;6.20;99.90
13589;DHT22;6865;52.552;13.434;2023-01-15T08:46:51;6.30;99.90
13589;DHT22;6865;52.552;13.434;2023-01-15T08:49:19;6.30;99.90
13589;DHT22;6865;52.552;13.434;2023-01-15T08:51:47;6.30;99.90
13589;DHT22;6865;52.552;13.434;2023-01-15T08:54:18;6.00;99.90
13589;DHT22;6865;52.552;13.434;2023-01-15T08:56:46;6.30;99.90
13589;DHT22;6865;52.552;13.434;2023-01-15T08:59:13;6.30;99.90
13589;DHT22;6865;52.552;13.434;2023-01-15T09:01:40;6.20;99.90
13589;DHT22;6865;52.552;13.434;2023-01-15T09:04:08;6.30;99.90
13589;DHT22;6865;52.552;13.434;2023-01-15T09:06:36;6.30;99.90
13589;DHT22;6865;52.552;13.434;2023-01-15T09:09:02;6.00;99.90
13589;DHT22;6865;52.552;13.434;2023-01-15T09:11:29;6.40;99.90
13589;DHT22;6865;52.552;13.434;2023-01-15T09:13:55;6.40;99.90
13589;DHT22;6865;52.552;13.434;2023-01-15T09:16:22;6.40;99.90
13589;DHT22;6865;52.552;13.434;2023-01-15T09:18:49;6.40;99.90
13589;DHT22;6865;52.552;13.434;2023-01-15T09:21:15;6.50;99.90
13589;DHT22;6865;52.552;13.434;2023-01-15T09:23:42;6.40;99.90
13589;DHT22;6865;52.552;13.434;2023-01-15T09:28:50;6.60;99.90
13589;DHT22;6865;52.552;13.434;2023-01-15T09:31:17;6.50;99.90
13589;DHT22;6865;52.552;13.434;2023-01-15T09:33:44;6.50;99.90
13589;DHT22;6865;52.552;13.434;2023-01-15T09:36:26;6.60;99.90
13589;DHT22;6865;52.552;13.434;2023-01-15T09:38:54;6.60;99.90
13589;DHT22;6865;52.552;13.434;2023-01-15T09:41:22;6.50;99.90
13589;DHT22;6865;52.552;13.434;2023-01-15T09:44:24;6.50;99.90
13589;DHT22;6865;52.552;13.434;2023-01-15T09:47:02;6.60;99.90
13589;DHT22;6865;52.552;13.434;2023-01-15T09:55:27;6.60;99.90
13589;DHT22;6865;52.552;13.434;2023-01-15T09:57:58;6.70;99.90
13589;DHT22;6865;52.552;13.434;2023-01-15T10:00:32;6.70;99.90
13589;DHT22;6865;52.552;13.434;2023-01-15T10:05:47;7.00;99.90
13589;DHT22;6865;52.552;13.434;2023-01-15T10:08:24;6.80;99.90
13589;DHT22;6865;52.552;13.434;2023-01-15T10:11:04;6.80;99.90
13589;DHT22;6865;52.552;13.434;2023-01-15T10:13:45;6.80;99.90
13589;DHT22;6865;52.552;13.434;2023-01-15T10:16:20;6.80;99.90
13589;DHT22;6865;52.552;13.434;2023-01-15T10:18:48;6.80;99.90
13589;DHT22;6865;52.552;13.434;2023-01-15T10:21:28;6.80;99.90
13589;DHT22;6865;52.552;13.434;2023-01-15T10:24:17;6.80;99.90
13589;DHT22;6865;52.552;13.434;2023-01-15T10:26:56;6.80;99.90
13589;DHT22;6865;52.552;13.434;2023-01-15T10:29:41;6.90;99.90
13589;DHT22;6865;52.552;13.434;2023-01-15T10:32:38;7.00;99.90
13589;DHT22;6865;52.552;13.434;2023-01-15T10:38:28;7.00;99.90
13589;DHT22;6865;52.552;13.434;2023-01-15T10:41:09;7.10;99.90
13589;DHT22;6865;52.552;13.434;2023-01-15T10:43:47;7.10;99.90
13589;DHT22;6865;52.552;13.434;2023-01-15T10:46:30;7.20;99.90
13589;DHT22;6865;52.552;13.434;2023-01-15T10:49:10;7.20;99.90
13589;DHT22;6865;52.552;13.434;2023-01-15T10:51:48;7.10;99.90
13589;DHT22;6865;52.552;13.434;2023-01-15T10:54:19;7.10;99.90
13589;DHT22;6865;52.552;13.434;2023-01-15T10:57:03;7.20;99.90
13589;DHT22;6865;52.552;13.434;2023-01-15T10:59:58;7.30;99.90
13589;DHT22;6865;52.552;13.434;2023-01-15T11:02:46;7.30;99.90
13589;DHT22;6865;52.552;13.434;2023-01-15T11:05:17;7.30;99.90
13589;DHT22;6865;52.552;13.434;2023-01-15T11:07:47;7.20;99.90
13589;DHT22;6865;52.552;13.434;2023-01-15T11:10:34;7.30;99.90
13589;DHT22;6865;52.552;13.434;2023-01-15T11:13:22;7.40;99.90
13589;DHT22;6865;52.552;13.434;2023-01-15T11:16:15;7.50;99.90
13589;DHT22;6865;52.552;13.434;2023-01-15T11:19:04;7.50;99.90
13589;DHT22;6865;52.552;13.434;2023-01-15T11:21:50;7.40;99.90
13589;DHT22;6865;52.552;13.434;2023-01-15T11:24:18;7.40;99.90
13589;DHT22;6865;52.552;13.434;2023-01-15T11:26:47;7.50;99.90
13589;DHT22;6865;52.552;13.434;2023-01-15T11:29:31;7.50;99.90
13589;DHT22;6865;52.552;13.434;2023-01-15T11:31:59;7.30;99.90
13589;DHT22;6865;52.552;13.434;2023-01-15T11:34:25;7.20;99.90
13589;DHT22;6865;52.552;13.434;2023-01-15T11:37:05;7.40;99.90
13589;DHT22;6865;52.552;13.434;2023-01-15T11:39:32;7.40;99.90
13589;DHT22;6865;52.552;13.434;2023-01-15T11:42:05;7.40;99.90
13589;DHT22;6865;52.552;13.434;2023-01-15T11:44:57;7.30;99.90
13589;DHT22;6865;52.552;13.434;2023-01-15T11:47:52;7.30;99.90
13589;DHT22;6865;52.552;13.434;2023-01-15T11:51:07;7.40;99.90
13589;DHT22;6865;52.552;13.434;2023-01-15T11:53:40;7.40;99.90
13589;DHT22;6865;52.552;13.434;2023-01-15T11:56:12;7.30;99.90
13589;DHT22;6865;52.552;13.434;2023-01-15T11:58:44;7.30;99.90
13589;DHT22;6865;52.552;13.434;2023-01-15T12:01:19;7.30;99.90
13589;DHT22;6865;52.552;13.434;2023-01-15T12:03:46;7.40;99.90
13589;DHT22;6865;52.552;13.434;2023-01-15T12:06:13;7.10;99.90
13589;DHT22;6865;52.552;13.434;2023-01-15T12:08:50;7.30;99.90
13589;DHT22;6865;52.552;13.434;2023-01-15T12:11:51;7.40;99.90
13589;DHT22;6865;52.552;13.434;2023-01-15T12:14:43;7.40;99.90
13589;DHT22;6865;52.552;13.434;2023-01-15T12:17:49;7.30;99.90
13589;DHT22;6865;52.552;13.434;2023-01-15T12:20:34;7.30;99.90
13589;DHT22;6865;52.552;13.434;2023-01-15T12:23:26;7.40;99.90
13589;DHT22;6865;52.552;13.434;2023-01-15T12:26:12;7.30;99.90
13589;DHT22;6865;52.552;13.434;2023-01-15T12:28:59;7.30;99.90
13589;DHT22;6865;52.552;13.434;2023-01-15T12:31:49;7.40;99.90
13589;DHT22;6865;52.552;13.434;2023-01-15T12:36:57;7.40;99.90
13589;DHT22;6865;52.552;13.434;2023-01-15T12:39:33;7.40;99.90
13589;DHT22;6865;52.552;13.434;2023-01-15T12:42:07;7.40;99.90
13589;DHT22;6865;52.552;13.434;2023-01-15T12:44:58;7.40;99.90
13589;DHT22;6865;52.552;13.434;2023-01-15T12:47:44;7.10;99.90
13589;DHT22;6865;52.552;13.434;2023-01-15T12:56:12;7.20;99.90
13589;DHT22;6865;52.552;13.434;2023-01-15T12:58:54;7.30;99.90
13589;DHT22;6865;52.552;13.434;2023-01-15T13:01:49;7.30;99.90
13589;DHT22;6865;52.552;13.434;2023-01-15T13:04:24;7.30;99.90
13589;DHT22;6865;52.552;13.434;2023-01-15T13:07:00;7.30;99.90
13589;DHT22;6865;52.552;13.434;2023-01-15T13:09:47;7.30;99.90
13589;DHT22;6865;52.552;13.434;2023-01-15T13:12:15;7.30;99.90
13589;DHT22;6865;52.552;13.434;2023-01-15T13:14:42;7.30;99.90
13589;DHT22;6865;52.552;13.434;2023-01-15T13:20:13;7.50;99.90
13589;DHT22;6865;52.552;13.434;2023-01-15T13:22:53;7.50;99.90
13589;DHT22;6865;52.552;13.434;2023-01-15T13:25:28;7.50;99.90
13589;DHT22;6865;52.552;13.434;2023-01-15T13:28:24;7.50;99.90
13589;DHT22;6865;52.552;13.434;2023-01-15T13:31:13;7.50;99.90
13589;DHT22;6865;52.552;13.434;2023-01-15T13:33:49;7.40;99.90
13589;DHT22;6865;52.552;13.434;2023-01-15T13:36:24;7.20;99.90
13589;DHT22;6865;52.552;13.434;2023-01-15T13:38:55;7.20;99.90
13589;DHT22;6865;52.552;13.434;2023-01-15T13:41:29;7.10;99.90
13589;DHT22;6865;52.552;13.434;2023-01-15T13:44:17;7.10;99.90
13589;DHT22;6865;52.552;13.434;2023-01-15T13:46:46;7.10;99.90
13589;DHT22;6865;52.552;13.434;2023-01-15T13:49:19;7.00;99.90
13589;DHT22;6865;52.552;13.434;2023-01-15T13:51:48;7.60;99.90
13589;DHT22;6865;52.552;13.434;2023-01-15T13:54:18;6.90;99.90
13589;DHT22;6865;52.552;13.434;2023-01-15T13:56:47;6.90;99.90
13589;DHT22;6865;52.552;13.434;2023-01-15T13:59:37;6.90;99.90
13589;DHT22;6865;52.552;13.434;2023-01-15T14:02:22;6.90;99.90
13589;DHT22;6865;52.552;13.434;2023-01-15T14:04:50;7.00;99.90
13589;DHT22;6865;52.552;13.434;2023-01-15T14:07:18;7.10;99.90
13589;DHT22;6865;52.552;13.434;2023-01-15T14:09:45;7.10;99.90
13589;DHT22;6865;52.552;13.434;2023-01-15T14:12:37;7.10;99.90
13589;DHT22;6865;52.552;13.434;2023-01-15T14:15:20;7.10;99.90
13589;DHT22;6865;52.552;13.434;2023-01-15T14:20:55;7.00;99.90
13589;DHT22;6865;52.552;13.434;2023-01-15T14:23:34;6.90;99.90
13589;DHT22;6865;52.552;13.434;2023-01-15T14:29:01;7.00;99.90
13589;DHT22;6865;52.552;13.434;2023-01-15T14:31:46;6.90;99.90
13589;DHT22;6865;52.552;13.434;2023-01-15T14:34:19;7.00;99.90
13589;DHT22;6865;52.552;13.434;2023-01-15T14:37:06;7.10;99.90
13589;DHT22;6865;52.552;13.434;2023-01-15T14:39:49;7.00;99.90
13589;DHT22;6865;52.552;13.434;2023-01-15T14:50:29;6.90;99.90
13589;DHT22;6865;52.552;13.434;2023-01-15T14:58:37;6.90;99.90
13589;DHT22;6865;52.552;13.434;2023-01-15T15:01:29;7.00;99.90
13589;DHT22;6865;52.552;13.434;2023-01-15T15:04:04;7.00;99.90
13589;DHT22;6865;52.552;13.434;2023-01-15T15:06:40;6.90;99.90
13589;DHT22;6865;52.552;13.434;2023-01-15T15:09:11;6.90;99.90
13589;DHT22;6865;52.552;13.434;2023-01-15T15:11:47;6.90;99.90
13589;DHT22;6865;52.552;13.434;2023-01-15T15:14:36;6.80;99.90
13589;DHT22;6865;52.552;13.434;2023-01-15T15:17:08;6.70;99.90
13589;DHT22;6865;52.552;13.434;2023-01-15T15:19:44;6.70;99.90
13589;DHT22;6865;52.552;13.434;2023-01-15T15:22:16;6.60;99.90
13589;DHT22;6865;52.552;13.434;2023-01-15T15:24:47;6.60;99.90
13589;DHT22;6865;52.552;13.434;2023-01-15T15:27:18;6.60;99.90
13589;DHT22;6865;52.552;13.434;2023-01-15T15:29:45;6.50;99.90
13589;DHT22;6865;52.552;13.434;2023-01-15T15:32:19;6.50;99.90
13589;DHT22;6865;52.552;13.434;2023-01-15T15:34:49;6.40;99.90
13589;DHT22;6865;52.552;13.434;2023-01-15T15:37:18;6.40;99.90
13589;DHT22;6865;52.552;13.434;2023-01-15T15:40:02;6.40;99.90
13589;DHT22;6865;52.552;13.434;2023-01-15T15:42:34;6.30;99.90
13589;DHT22;6865;52.552;13.434;2023-01-15T15:45:29;6.30;99.90
13589;DHT22;6865;52.552;13.434;2023-01-15T15:48:30;6.20;99.90
13589;DHT22;6865;52.552;13.434;2023-01-15T15:51:32;6.10;99.90
13589;DHT22;6865;52.552;13.434;2023-01-15T15:54:23;6.20;99.90
13589;DHT22;6865;52.552;13.434;2023-01-15T15:57:07;6.20;99.90
13589;DHT22;6865;52.552;13.434;2023-01-15T15:59:44;6.10;99.90
13589;DHT22;6865;52.552;13.434;2023-01-15T16:02:27;6.10;99.90
13589;DHT22;6865;52.552;13.434;2023-01-15T16:05:01;6.10;99.90
13589;DHT22;6865;52.552;13.434;2023-01-15T16:07:30;6.00;99.90
13589;DHT22;6865;52.552;13.434;2023-01-15T16:10:17;6.00;99.90
13589;DHT22;6865;52.552;13.434;2023-01-15T16:12:50;6.00;99.90
13589;DHT22;6865;52.552;13.434;2023-01-15T16:15:40;6.00;99.90
13589;DHT22;6865;52.552;13.434;2023-01-15T16:18:17;5.90;99.90
13589;DHT22;6865;52.552;13.434;2023-01-15T16:20:45;5.30;99.90
13589;DHT22;6865;52.552;13.434;2023-01-15T16:23:20;5.80;99.90
13589;DHT22;6865;52.552;13.434;2023-01-15T16:28:38;5.80;99.90
13589;DHT22;6865;52.552;13.434;2023-01-15T16:31:09;5.80;99.90
13589;DHT22;6865;52.552;13.434;2023-01-15T16:33:37;5.70;99.90
13589;DHT22;6865;52.552;13.434;2023-01-15T16:36:05;5.60;99.90
13589;DHT22;6865;52.552;13.434;2023-01-15T16:38:41;5.60;99.90
13589;DHT22;6865;52.552;13.434;2023-01-15T16:41:24;5.70;99.90
13589;DHT22;6865;52.552;13.434;2023-01-15T16:44:00;5.60;99.90
13589;DHT22;6865;52.552;13.434;2023-01-15T16:46:30;5.60;99.90
13589;DHT22;6865;52.552;13.434;2023-01-15T16:51:53;5.60;99.90
13589;DHT22;6865;52.552;13.434;2023-01-15T17:02:03;5.50;99.90
13589;DHT22;6865;52.552;13.434;2023-01-15T17:04:39;5.50;99.90
13589;DHT22;6865;52.552;13.434;2023-01-15T17:07:19;5.50;99.90
13589;DHT22;6865;52.552;13.434;2023-01-15T17:09:48;5.60;99.90
13589;DHT22;6865;52.552;13.434;2023-01-15T17:12:37;5.60;99.90
13589;DHT22;6865;52.552;13.434;2023-01-15T17:17:45;5.60;99.90
13589;DHT22;6865;52.552;13.434;2023-01-15T17:20:13;5.60;99.90
13589;DHT22;6865;52.552;13.434;2023-01-15T17:22:41;5.50;99.90
13589;DHT22;6865;52.552;13.434;2023-01-15T17:25:25;5.50;99.90
13589;DHT22;6865;52.552;13.434;2023-01-15T17:27:53;5.50;99.90
13589;DHT22;6865;52.552;13.434;2023-01-15T17:30:21;5.60;99.90
13589;DHT22;6865;52.552;13.434;2023-01-15T17:32:57;5.50;99.90
13589;DHT22;6865;52.552;13.434;2023-01-15T17:35:27;5.50;99.90